This is the latest recevied weather packets stored in our database for station/object KO5S. If no packets are shown the sender has not sent any weather packets the latest 10 day(s).
| Time | Temp. | Humidity | Pressure | Rain* | Wind** | Luminosity | Snow |
|---|---|---|---|---|---|---|---|
| 1778211517 | 20.56° C | 90% | 1010.5 hPa | 0 mm | - | - | - |
| 1778209096 | 21.11° C | 89% | 1010.8 hPa | 0 mm | - | - | - |
| 1778203096 | 22.22° C | 87% | 1009.4 hPa | 0 mm | - | - | - |
| 1778189916 | 25.56° C | 84% | 1008.7 hPa | 0 mm | - | - | - |
| 1778187496 | 25.56° C | 85% | 1008.7 hPa | 0 mm | - | - | - |
| 1778182096 | 25° C | 86% | 1009 hPa | 0 mm | - | - | - |
| 1778180896 | 25° C | 88% | 1008.9 hPa | 0 mm | - | - | - |
| 1778175496 | 21.67° C | 94% | 1009.8 hPa | 0 mm | - | - | - |
| 1778174896 | 21.11° C | 93% | 1010 hPa | 0 mm | - | - | - |
| 1778174297 | 21.11° C | 93% | 1010.2 hPa | 0.25 mm | - | - | - |
| 1778171896 | 22.22° C | 93% | 1010.1 hPa | 2.54 mm | - | - | - |
| 1778165297 | 21.11° C | 92% | 1009.9 hPa | 18.8 mm | - | - | - |
| 1778163496 | 21.67° C | 91% | 1009.6 hPa | 19.56 mm | - | - | - |
| 1778159316 | 25° C | 91% | 1008.6 hPa | 0 mm | - | - | - |
| 1778158096 | 25° C | 91% | 1008.6 hPa | 0 mm | - | - | - |
| 1778157496 | 25° C | 91% | 1008.3 hPa | 0 mm | - | - | - |
| 1778155096 | 24.44° C | 92% | 1008.3 hPa | 0 mm | - | - | - |
| 1778143696 | 25° C | 90% | 1007.1 hPa | 0 mm | - | - | - |
| 1778140716 | 25° C | 90% | 1007.7 hPa | 0 mm | - | - | - |
| 1778139496 | 25.56° C | 90% | 1007.8 hPa | 0 mm | - | - | - |
| 1778137096 | 25.56° C | 90% | 1007.6 hPa | 0 mm | - | - | - |
| 1778133496 | 25° C | 90% | 1007.5 hPa | 0 mm | - | - | - |
| 1778127495 | 25° C | 91% | 1008.6 hPa | 0 mm | - | - | - |
| 1778123895 | 25° C | 91% | 1008.2 hPa | 0 mm | - | - | - |
| 1778122095 | 24.44° C | 91% | 1008.1 hPa | 0 mm | - | - | - |
* Rain latest hour (hover to see other rain measurements)
** Current wind speed in m/s (hover to see current wind gust speed)